Airfield :
LOGIN :

Register | Disclaimer

   EN    FR    IT 

 










Legend :    VFR   Marginal VFR   IFR   Intensive IFR   Very Intensive IFR
Visi :
Ceiling :
>= 8 km
>= 3000ft
5 to 8 km
1000 to 3000 ft
1500m to 5 km
500 to 1000 ft
800 to 1500m
200 to 500 ft
< 800m
< 200 ft
Symbols :   Thunderstorms  Fog  Heavy snow  Heavy precipitations  Wind > 20 kt
SIGMETs :     Misc.  Thunderstorms  Icing  Turbulence  Mountain Waves  Volcanic Ashes







- Airport Elevation : 978 ft
- IATA code : LNZ


LOWL - Linz

CURRENT METAR :
  • 251920Z AUTO 29005KT 9999 BKN080 19/08 Q1012 NOSIG

EXPIRED METARs :
  • 251820Z AUTO 27010KT 9999 OVC080 21/06 Q1011 NOSIG
  • 251750Z AUTO 27013KT 9999 BKN080 22/06 Q1010 NOSIG
  • 251720Z AUTO 28015KT 9999 FEW070 BKN080 23/06 Q1010 NOSIG
  • 251650Z AUTO 29011KT 9999 FEW070 24/08 Q1010 NOSIG

TAF TAF LOWL
Valid from the 25 at 18:00 until the 26 at 18:00 UTC


251715Z 2518/2618 26010KT 9999 FEW050 SCT120 TX22/2518Z TN11/2618Z
PROB30
TEMPO 2520/2524 30015G25KT FEW060CB BKN100
BECMG 2523/2602 26006KT -RA FEW030 BKN050
TEMPO 2604/2608 30015G25KT 8000 SHRA SCT020TCU BKN030
BECMG 2608/2610 26012KT NSW
TEMPO 2610/2617 29015G25KT -SHRA
No reported NOTAMs for that airfield.
1 SIGMET reported for the Wien FIR (LOVV) :
 
Squall lined thunderstorms
LOVV SIGMET 1 VALID 251953/252050 LOWW
LOVV WIEN FIR SQL TS OBS WI N4810 E01710 - N4745 E01710 - N4725 E01605 - N4745 E01540 - N4810 E01620 - N4810 E01710 TOP FL350 STNR NC=



MET'MAP, your aeronautical weather chart ! - Copyright ORBIFLY December 2007 - Disclaimer

ORBIFLY MET'MAP TEAM :

Programming & Development : Alexandra Zaïnal
Concept & Development : Baudouin d'Aumeries
Co-Development & Prog : Marc-Olivier Méhu
Technical & hardware support : Manuel Goepfert

Contact : metmap@orbifly.com




SOURCES & CREDITS :

   NOAA